sensor_id;sensor_type;location;lat;lon;timestamp;temperature;humidity
66936;DHT22;53847;51.984;5.896;2022-07-23T00:01:59;17.50;72.10
66936;DHT22;53847;51.984;5.896;2022-07-23T00:04:25;17.70;72.00
66936;DHT22;53847;51.984;5.896;2022-07-23T00:06:51;18.20;72.30
66936;DHT22;53847;51.984;5.896;2022-07-23T00:09:18;17.80;72.10
66936;DHT22;53847;51.984;5.896;2022-07-23T00:11:44;17.50;72.40
66936;DHT22;53847;51.984;5.896;2022-07-23T00:14:10;17.40;73.00
66936;DHT22;53847;51.984;5.896;2022-07-23T00:16:36;17.30;73.10
66936;DHT22;53847;51.984;5.896;2022-07-23T00:19:02;17.30;73.30
66936;DHT22;53847;51.984;5.896;2022-07-23T00:21:28;17.30;73.20
66936;DHT22;53847;51.984;5.896;2022-07-23T00:23:54;17.30;73.30
66936;DHT22;53847;51.984;5.896;2022-07-23T00:26:20;17.20;73.50
66936;DHT22;53847;51.984;5.896;2022-07-23T00:28:46;17.20;73.50
66936;DHT22;53847;51.984;5.896;2022-07-23T00:31:12;17.20;73.80
66936;DHT22;53847;51.984;5.896;2022-07-23T00:33:38;17.10;74.10
66936;DHT22;53847;51.984;5.896;2022-07-23T00:36:05;17.60;74.40
66936;DHT22;53847;51.984;5.896;2022-07-23T00:38:31;17.00;74.40
66936;DHT22;53847;51.984;5.896;2022-07-23T00:40:57;16.90;74.80
66936;DHT22;53847;51.984;5.896;2022-07-23T00:43:23;17.30;74.90
66936;DHT22;53847;51.984;5.896;2022-07-23T00:45:50;17.00;74.90
66936;DHT22;53847;51.984;5.896;2022-07-23T00:48:16;17.00;75.70
66936;DHT22;53847;51.984;5.896;2022-07-23T00:50:45;16.40;75.70
66936;DHT22;53847;51.984;5.896;2022-07-23T00:53:12;16.80;76.40
66936;DHT22;53847;51.984;5.896;2022-07-23T00:55:39;16.70;76.60
66936;DHT22;53847;51.984;5.896;2022-07-23T00:58:06;16.50;76.50
66936;DHT22;53847;51.984;5.896;2022-07-23T01:00:32;16.70;76.50
66936;DHT22;53847;51.984;5.896;2022-07-23T01:02:58;16.60;77.00
66936;DHT22;53847;51.984;5.896;2022-07-23T01:05:24;16.60;77.20
66936;DHT22;53847;51.984;5.896;2022-07-23T01:07:51;16.50;76.80
66936;DHT22;53847;51.984;5.896;2022-07-23T01:10:18;16.70;76.60
66936;DHT22;53847;51.984;5.896;2022-07-23T01:12:44;16.70;76.30
66936;DHT22;53847;51.984;5.896;2022-07-23T01:15:10;16.50;76.50
66936;DHT22;53847;51.984;5.896;2022-07-23T01:17:37;16.50;76.50
66936;DHT22;53847;51.984;5.896;2022-07-23T01:20:04;16.10;76.50
66936;DHT22;53847;51.984;5.896;2022-07-23T01:22:31;16.50;76.30
66936;DHT22;53847;51.984;5.896;2022-07-23T01:24:57;16.50;76.10
66936;DHT22;53847;51.984;5.896;2022-07-23T01:27:25;16.20;76.10
66936;DHT22;53847;51.984;5.896;2022-07-23T01:29:57;16.30;76.60
66936;DHT22;53847;51.984;5.896;2022-07-23T01:32:24;16.50;76.70
66936;DHT22;53847;51.984;5.896;2022-07-23T01:34:50;16.50;77.00
66936;DHT22;53847;51.984;5.896;2022-07-23T01:37:16;16.80;77.10
66936;DHT22;53847;51.984;5.896;2022-07-23T01:39:43;16.40;77.10
66936;DHT22;53847;51.984;5.896;2022-07-23T01:42:09;16.40;77.30
66936;DHT22;53847;51.984;5.896;2022-07-23T01:44:35;16.40;77.30
66936;DHT22;53847;51.984;5.896;2022-07-23T01:47:01;16.50;77.40
66936;DHT22;53847;51.984;5.896;2022-07-23T01:49:28;16.20;77.20
66936;DHT22;53847;51.984;5.896;2022-07-23T01:52:24;16.30;77.30
66936;DHT22;53847;51.984;5.896;2022-07-23T01:54:50;16.00;77.10
66936;DHT22;53847;51.984;5.896;2022-07-23T01:57:17;16.20;77.50
66936;DHT22;53847;51.984;5.896;2022-07-23T01:59:43;16.20;77.60
66936;DHT22;53847;51.984;5.896;2022-07-23T02:02:10;16.20;77.20
66936;DHT22;53847;51.984;5.896;2022-07-23T02:04:37;16.50;77.40
66936;DHT22;53847;51.984;5.896;2022-07-23T02:07:04;16.60;77.40
66936;DHT22;53847;51.984;5.896;2022-07-23T02:09:30;15.90;76.80
66936;DHT22;53847;51.984;5.896;2022-07-23T02:11:56;16.40;76.80
66936;DHT22;53847;51.984;5.896;2022-07-23T02:14:23;16.50;76.80
66936;DHT22;53847;51.984;5.896;2022-07-23T02:16:49;16.40;77.00
66936;DHT22;53847;51.984;5.896;2022-07-23T02:19:15;16.20;77.50
66936;DHT22;53847;51.984;5.896;2022-07-23T02:21:41;16.70;77.00
66936;DHT22;53847;51.984;5.896;2022-07-23T02:24:08;16.20;76.80
66936;DHT22;53847;51.984;5.896;2022-07-23T02:26:34;16.10;76.90
66936;DHT22;53847;51.984;5.896;2022-07-23T02:29:02;16.40;77.10
66936;DHT22;53847;51.984;5.896;2022-07-23T02:31:29;16.50;77.10
66936;DHT22;53847;51.984;5.896;2022-07-23T02:33:56;16.60;76.80
66936;DHT22;53847;51.984;5.896;2022-07-23T02:36:23;16.10;76.20
66936;DHT22;53847;51.984;5.896;2022-07-23T02:38:49;16.40;76.40
66936;DHT22;53847;51.984;5.896;2022-07-23T02:41:16;16.10;76.50
66936;DHT22;53847;51.984;5.896;2022-07-23T02:43:42;16.00;76.40
66936;DHT22;53847;51.984;5.896;2022-07-23T02:46:08;16.20;76.40
66936;DHT22;53847;51.984;5.896;2022-07-23T02:48:35;15.80;76.20
66936;DHT22;53847;51.984;5.896;2022-07-23T02:51:01;15.70;76.10
66936;DHT22;53847;51.984;5.896;2022-07-23T02:53:33;16.10;76.30
66936;DHT22;53847;51.984;5.896;2022-07-23T02:55:59;16.00;76.30
66936;DHT22;53847;51.984;5.896;2022-07-23T02:58:25;15.60;76.30
66936;DHT22;53847;51.984;5.896;2022-07-23T03:00:52;15.70;76.50
66936;DHT22;53847;51.984;5.896;2022-07-23T03:03:18;16.00;76.70
66936;DHT22;53847;51.984;5.896;2022-07-23T03:05:44;15.90;76.70
66936;DHT22;53847;51.984;5.896;2022-07-23T03:08:10;15.90;76.70
66936;DHT22;53847;51.984;5.896;2022-07-23T03:10:40;16.30;77.00
66936;DHT22;53847;51.984;5.896;2022-07-23T03:13:06;15.90;76.70
66936;DHT22;53847;51.984;5.896;2022-07-23T03:15:32;16.20;77.00
66936;DHT22;53847;51.984;5.896;2022-07-23T03:17:58;16.00;77.00
66936;DHT22;53847;51.984;5.896;2022-07-23T03:20:24;15.90;77.10
66936;DHT22;53847;51.984;5.896;2022-07-23T03:22:50;15.90;76.90
66936;DHT22;53847;51.984;5.896;2022-07-23T03:25:17;16.10;77.10
66936;DHT22;53847;51.984;5.896;2022-07-23T03:27:43;15.90;76.80
66936;DHT22;53847;51.984;5.896;2022-07-23T03:30:10;16.00;76.80
66936;DHT22;53847;51.984;5.896;2022-07-23T03:32:37;16.20;77.00
66936;DHT22;53847;51.984;5.896;2022-07-23T03:35:03;15.80;76.70
66936;DHT22;53847;51.984;5.896;2022-07-23T03:37:31;16.10;77.10
66936;DHT22;53847;51.984;5.896;2022-07-23T03:39:58;15.60;77.00
66936;DHT22;53847;51.984;5.896;2022-07-23T03:42:24;15.70;77.20
66936;DHT22;53847;51.984;5.896;2022-07-23T03:44:50;15.70;77.30
66936;DHT22;53847;51.984;5.896;2022-07-23T03:47:16;15.60;77.40
66936;DHT22;53847;51.984;5.896;2022-07-23T03:49:43;15.70;77.40
66936;DHT22;53847;51.984;5.896;2022-07-23T03:52:09;15.60;77.40
66936;DHT22;53847;51.984;5.896;2022-07-23T03:54:35;15.70;77.80
66936;DHT22;53847;51.984;5.896;2022-07-23T03:57:02;15.50;77.60
66936;DHT22;53847;51.984;5.896;2022-07-23T03:59:28;16.10;78.10
66936;DHT22;53847;51.984;5.896;2022-07-23T04:01:54;15.30;78.00
66936;DHT22;53847;51.984;5.896;2022-07-23T04:04:21;15.60;78.10
66936;DHT22;53847;51.984;5.896;2022-07-23T04:06:49;15.60;78.10
66936;DHT22;53847;51.984;5.896;2022-07-23T04:09:15;15.80;78.10
66936;DHT22;53847;51.984;5.896;2022-07-23T04:11:41;15.20;77.80
66936;DHT22;53847;51.984;5.896;2022-07-23T04:14:08;15.60;78.40
66936;DHT22;53847;51.984;5.896;2022-07-23T04:16:34;15.60;78.20
66936;DHT22;53847;51.984;5.896;2022-07-23T04:19:00;15.40;78.30
66936;DHT22;53847;51.984;5.896;2022-07-23T04:21:30;15.80;78.50
66936;DHT22;53847;51.984;5.896;2022-07-23T04:23:56;15.80;78.40
66936;DHT22;53847;51.984;5.896;2022-07-23T04:26:23;15.90;78.70
66936;DHT22;53847;51.984;5.896;2022-07-23T04:28:49;15.70;78.60
66936;DHT22;53847;51.984;5.896;2022-07-23T04:31:16;15.60;78.40
66936;DHT22;53847;51.984;5.896;2022-07-23T04:33:42;15.70;78.50
66936;DHT22;53847;51.984;5.896;2022-07-23T04:36:10;15.90;78.50
66936;DHT22;53847;51.984;5.896;2022-07-23T04:38:36;15.70;78.30
66936;DHT22;53847;51.984;5.896;2022-07-23T04:41:04;15.60;78.30
66936;DHT22;53847;51.984;5.896;2022-07-23T04:43:31;16.10;78.70
66936;DHT22;53847;51.984;5.896;2022-07-23T04:45:57;15.70;78.30
66936;DHT22;53847;51.984;5.896;2022-07-23T04:48:23;15.80;78.50
66936;DHT22;53847;51.984;5.896;2022-07-23T04:50:57;15.80;78.50
66936;DHT22;53847;51.984;5.896;2022-07-23T04:53:24;15.80;78.40
66936;DHT22;53847;51.984;5.896;2022-07-23T04:55:54;16.10;78.60
66936;DHT22;53847;51.984;5.896;2022-07-23T04:58:20;15.50;78.30
66936;DHT22;53847;51.984;5.896;2022-07-23T05:00:47;16.00;78.50
66936;DHT22;53847;51.984;5.896;2022-07-23T05:03:13;16.10;78.60
66936;DHT22;53847;51.984;5.896;2022-07-23T05:05:40;15.90;78.50
66936;DHT22;53847;51.984;5.896;2022-07-23T05:08:11;15.90;78.50
66936;DHT22;53847;51.984;5.896;2022-07-23T05:10:39;16.00;78.40
66936;DHT22;53847;51.984;5.896;2022-07-23T05:13:05;16.10;78.30
66936;DHT22;53847;51.984;5.896;2022-07-23T05:15:31;15.90;78.20
66936;DHT22;53847;51.984;5.896;2022-07-23T05:17:57;16.10;78.40
66936;DHT22;53847;51.984;5.896;2022-07-23T05:20:23;16.20;78.30
66936;DHT22;53847;51.984;5.896;2022-07-23T05:22:50;16.30;78.30
66936;DHT22;53847;51.984;5.896;2022-07-23T05:25:17;16.40;78.30
66936;DHT22;53847;51.984;5.896;2022-07-23T05:27:44;16.30;78.10
66936;DHT22;53847;51.984;5.896;2022-07-23T05:30:10;16.00;77.80
66936;DHT22;53847;51.984;5.896;2022-07-23T05:32:38;16.40;78.00
66936;DHT22;53847;51.984;5.896;2022-07-23T05:35:11;16.70;78.10
66936;DHT22;53847;51.984;5.896;2022-07-23T05:37:41;16.80;78.10
66936;DHT22;53847;51.984;5.896;2022-07-23T05:40:09;16.60;78.00
66936;DHT22;53847;51.984;5.896;2022-07-23T05:42:37;16.70;78.00
66936;DHT22;53847;51.984;5.896;2022-07-23T05:45:05;16.70;78.00
66936;DHT22;53847;51.984;5.896;2022-07-23T05:47:47;16.60;77.80
66936;DHT22;53847;51.984;5.896;2022-07-23T05:50:17;16.90;77.70
66936;DHT22;53847;51.984;5.896;2022-07-23T05:52:47;16.60;77.30
66936;DHT22;53847;51.984;5.896;2022-07-23T05:55:45;17.00;77.40
66936;DHT22;53847;51.984;5.896;2022-07-23T05:58:11;17.30;77.20
66936;DHT22;53847;51.984;5.896;2022-07-23T06:00:38;17.10;77.20
66936;DHT22;53847;51.984;5.896;2022-07-23T06:03:04;17.20;78.50
66936;DHT22;53847;51.984;5.896;2022-07-23T06:05:31;17.60;79.70
66936;DHT22;53847;51.984;5.896;2022-07-23T06:07:58;18.20;81.10
66936;DHT22;53847;51.984;5.896;2022-07-23T06:10:25;19.10;80.90
66936;DHT22;53847;51.984;5.896;2022-07-23T06:12:51;19.60;80.60
66936;DHT22;53847;51.984;5.896;2022-07-23T06:15:18;20.30;79.30
66936;DHT22;53847;51.984;5.896;2022-07-23T06:17:44;21.20;77.90
66936;DHT22;53847;51.984;5.896;2022-07-23T06:20:10;22.10;76.10
66936;DHT22;53847;51.984;5.896;2022-07-23T06:22:38;22.10;73.90
66936;DHT22;53847;51.984;5.896;2022-07-23T06:25:05;22.70;69.60
66936;DHT22;53847;51.984;5.896;2022-07-23T06:27:32;23.20;71.00
66936;DHT22;53847;51.984;5.896;2022-07-23T06:29:58;23.70;69.70
66936;DHT22;53847;51.984;5.896;2022-07-23T06:32:29;24.20;67.80
66936;DHT22;53847;51.984;5.896;2022-07-23T06:34:55;24.70;65.20
66936;DHT22;53847;51.984;5.896;2022-07-23T06:37:21;25.10;64.80
66936;DHT22;53847;51.984;5.896;2022-07-23T06:39:47;24.90;64.10
66936;DHT22;53847;51.984;5.896;2022-07-23T06:42:13;25.50;62.50
66936;DHT22;53847;51.984;5.896;2022-07-23T06:44:44;25.60;60.60
66936;DHT22;53847;51.984;5.896;2022-07-23T06:47:10;25.80;60.20
66936;DHT22;53847;51.984;5.896;2022-07-23T06:49:36;26.40;58.70
66936;DHT22;53847;51.984;5.896;2022-07-23T06:52:02;26.20;56.70
66936;DHT22;53847;51.984;5.896;2022-07-23T06:54:28;26.70;54.60
66936;DHT22;53847;51.984;5.896;2022-07-23T06:56:54;26.70;55.00
66936;DHT22;53847;51.984;5.896;2022-07-23T06:59:20;27.00;55.10
66936;DHT22;53847;51.984;5.896;2022-07-23T07:01:47;26.70;54.10
66936;DHT22;53847;51.984;5.896;2022-07-23T07:04:13;27.20;52.70
66936;DHT22;53847;51.984;5.896;2022-07-23T07:06:39;26.90;52.50
66936;DHT22;53847;51.984;5.896;2022-07-23T07:09:05;27.00;52.70
66936;DHT22;53847;51.984;5.896;2022-07-23T07:11:31;27.20;51.50
66936;DHT22;53847;51.984;5.896;2022-07-23T07:13:58;27.40;52.20
66936;DHT22;53847;51.984;5.896;2022-07-23T07:16:24;27.50;51.50
66936;DHT22;53847;51.984;5.896;2022-07-23T07:18:50;27.80;51.70
66936;DHT22;53847;51.984;5.896;2022-07-23T07:21:16;28.00;48.60
66936;DHT22;53847;51.984;5.896;2022-07-23T07:23:42;27.70;47.80
66936;DHT22;53847;51.984;5.896;2022-07-23T07:26:08;27.40;47.10
66936;DHT22;53847;51.984;5.896;2022-07-23T07:28:34;27.90;47.30
66936;DHT22;53847;51.984;5.896;2022-07-23T07:31:00;27.90;47.40
66936;DHT22;53847;51.984;5.896;2022-07-23T07:33:26;28.00;47.30
66936;DHT22;53847;51.984;5.896;2022-07-23T07:35:52;28.10;46.60
66936;DHT22;53847;51.984;5.896;2022-07-23T07:38:18;27.80;46.10
66936;DHT22;53847;51.984;5.896;2022-07-23T07:40:45;28.00;46.70
66936;DHT22;53847;51.984;5.896;2022-07-23T07:43:11;28.50;46.80
66936;DHT22;53847;51.984;5.896;2022-07-23T07:45:37;28.50;45.30
66936;DHT22;53847;51.984;5.896;2022-07-23T07:48:04;28.50;44.80
66936;DHT22;53847;51.984;5.896;2022-07-23T07:50:31;28.30;44.60
66936;DHT22;53847;51.984;5.896;2022-07-23T07:52:57;28.30;44.60
66936;DHT22;53847;51.984;5.896;2022-07-23T07:55:23;28.50;44.70
66936;DHT22;53847;51.984;5.896;2022-07-23T07:57:49;28.50;44.30
66936;DHT22;53847;51.984;5.896;2022-07-23T08:00:16;28.40;44.20
66936;DHT22;53847;51.984;5.896;2022-07-23T08:02:44;28.30;43.50
66936;DHT22;53847;51.984;5.896;2022-07-23T08:05:11;28.20;43.80
66936;DHT22;53847;51.984;5.896;2022-07-23T08:07:37;28.10;44.00
66936;DHT22;53847;51.984;5.896;2022-07-23T08:10:04;28.00;44.10
66936;DHT22;53847;51.984;5.896;2022-07-23T08:12:48;28.00;44.10
66936;DHT22;53847;51.984;5.896;2022-07-23T08:15:16;28.10;44.00
66936;DHT22;53847;51.984;5.896;2022-07-23T08:17:44;28.20;44.20
66936;DHT22;53847;51.984;5.896;2022-07-23T08:20:12;27.90;43.80
66936;DHT22;53847;51.984;5.896;2022-07-23T08:22:52;28.20;43.60
66936;DHT22;53847;51.984;5.896;2022-07-23T08:25:25;28.10;43.80
66936;DHT22;53847;51.984;5.896;2022-07-23T08:27:51;28.10;43.60
66936;DHT22;53847;51.984;5.896;2022-07-23T08:30:18;28.30;43.80
66936;DHT22;53847;51.984;5.896;2022-07-23T08:35:14;28.10;43.40
66936;DHT22;53847;51.984;5.896;2022-07-23T08:37:40;28.10;43.70
66936;DHT22;53847;51.984;5.896;2022-07-23T08:40:07;27.80;43.00
66936;DHT22;53847;51.984;5.896;2022-07-23T08:42:33;28.00;43.10
66936;DHT22;53847;51.984;5.896;2022-07-23T08:45:02;28.10;43.60
66936;DHT22;53847;51.984;5.896;2022-07-23T08:47:29;27.90;42.90
66936;DHT22;53847;51.984;5.896;2022-07-23T08:49:56;27.40;42.40
66936;DHT22;53847;51.984;5.896;2022-07-23T08:52:24;26.90;42.50
66936;DHT22;53847;51.984;5.896;2022-07-23T08:54:51;26.30;42.70
66936;DHT22;53847;51.984;5.896;2022-07-23T08:57:20;26.00;43.10
66936;DHT22;53847;51.984;5.896;2022-07-23T08:59:46;26.20;43.50
66936;DHT22;53847;51.984;5.896;2022-07-23T09:02:12;25.80;43.30
66936;DHT22;53847;51.984;5.896;2022-07-23T09:04:39;25.80;43.50
66936;DHT22;53847;51.984;5.896;2022-07-23T09:07:08;25.40;43.60
66936;DHT22;53847;51.984;5.896;2022-07-23T09:09:34;25.10;44.60
66936;DHT22;53847;51.984;5.896;2022-07-23T09:12:04;25.00;45.40
66936;DHT22;53847;51.984;5.896;2022-07-23T09:14:42;24.60;45.50
66936;DHT22;53847;51.984;5.896;2022-07-23T09:17:17;24.30;45.60
66936;DHT22;53847;51.984;5.896;2022-07-23T09:19:45;24.50;45.60
66936;DHT22;53847;51.984;5.896;2022-07-23T09:22:38;24.40;45.60
66936;DHT22;53847;51.984;5.896;2022-07-23T09:25:16;24.20;46.10
66936;DHT22;53847;51.984;5.896;2022-07-23T09:27:54;24.20;46.60
66936;DHT22;53847;51.984;5.896;2022-07-23T09:30:22;24.50;46.80
66936;DHT22;53847;51.984;5.896;2022-07-23T09:35:47;23.90;47.60
66936;DHT22;53847;51.984;5.896;2022-07-23T09:38:14;23.60;48.20
66936;DHT22;53847;51.984;5.896;2022-07-23T09:40:41;23.80;48.10
66936;DHT22;53847;51.984;5.896;2022-07-23T09:43:07;24.10;48.60
66936;DHT22;53847;51.984;5.896;2022-07-23T09:45:33;23.70;48.20
66936;DHT22;53847;51.984;5.896;2022-07-23T09:48:16;23.70;48.00
66936;DHT22;53847;51.984;5.896;2022-07-23T09:50:45;23.60;47.90
66936;DHT22;53847;51.984;5.896;2022-07-23T09:53:24;23.80;48.10
66936;DHT22;53847;51.984;5.896;2022-07-23T09:55:51;23.70;48.00
66936;DHT22;53847;51.984;5.896;2022-07-23T09:58:19;23.70;48.20
66936;DHT22;53847;51.984;5.896;2022-07-23T10:00:47;24.20;48.60
66936;DHT22;53847;51.984;5.896;2022-07-23T10:03:14;23.80;48.50
66936;DHT22;53847;51.984;5.896;2022-07-23T10:05:41;23.70;48.60
66936;DHT22;53847;51.984;5.896;2022-07-23T10:08:41;24.10;49.10
66936;DHT22;53847;51.984;5.896;2022-07-23T10:11:30;23.50;49.20
66936;DHT22;53847;51.984;5.896;2022-07-23T10:14:22;23.80;49.80
66936;DHT22;53847;51.984;5.896;2022-07-23T10:16:55;23.80;49.50
66936;DHT22;53847;51.984;5.896;2022-07-23T10:19:23;23.80;49.30
66936;DHT22;53847;51.984;5.896;2022-07-23T10:21:55;23.90;49.10
66936;DHT22;53847;51.984;5.896;2022-07-23T10:24:58;24.10;49.10
66936;DHT22;53847;51.984;5.896;2022-07-23T10:30:07;23.80;48.80
66936;DHT22;53847;51.984;5.896;2022-07-23T10:37:52;23.90;48.60
66936;DHT22;53847;51.984;5.896;2022-07-23T10:40:22;24.00;48.80
66936;DHT22;53847;51.984;5.896;2022-07-23T10:42:50;24.00;48.70
66936;DHT22;53847;51.984;5.896;2022-07-23T10:45:25;24.00;48.90
66936;DHT22;53847;51.984;5.896;2022-07-23T10:47:52;24.10;49.00
66936;DHT22;53847;51.984;5.896;2022-07-23T10:58:01;24.30;48.50
66936;DHT22;53847;51.984;5.896;2022-07-23T11:00:29;24.60;48.20
66936;DHT22;53847;51.984;5.896;2022-07-23T11:02:57;24.60;48.00
66936;DHT22;53847;51.984;5.896;2022-07-23T11:05:44;24.50;47.70
66936;DHT22;53847;51.984;5.896;2022-07-23T11:08:13;24.70;47.80
66936;DHT22;53847;51.984;5.896;2022-07-23T11:10:42;24.60;47.70
66936;DHT22;53847;51.984;5.896;2022-07-23T11:23:58;24.90;46.50
66936;DHT22;53847;51.984;5.896;2022-07-23T11:31:58;24.60;46.70
66936;DHT22;53847;51.984;5.896;2022-07-23T11:34:39;25.20;47.00
66936;DHT22;53847;51.984;5.896;2022-07-23T11:37:08;25.40;47.00
66936;DHT22;53847;51.984;5.896;2022-07-23T11:39:35;25.30;46.90
66936;DHT22;53847;51.984;5.896;2022-07-23T11:42:03;25.10;46.70
66936;DHT22;53847;51.984;5.896;2022-07-23T11:44:33;25.10;46.80
66936;DHT22;53847;51.984;5.896;2022-07-23T11:47:01;25.30;46.60
66936;DHT22;53847;51.984;5.896;2022-07-23T11:49:28;25.20;46.50
66936;DHT22;53847;51.984;5.896;2022-07-23T11:52:12;24.90;45.70
66936;DHT22;53847;51.984;5.896;2022-07-23T11:57:14;25.00;46.20
66936;DHT22;53847;51.984;5.896;2022-07-23T11:59:40;25.30;46.90
66936;DHT22;53847;51.984;5.896;2022-07-23T12:02:08;25.20;46.90
66936;DHT22;53847;51.984;5.896;2022-07-23T12:04:45;25.60;47.10
66936;DHT22;53847;51.984;5.896;2022-07-23T12:07:34;24.70;46.30
66936;DHT22;53847;51.984;5.896;2022-07-23T12:10:20;25.00;46.90
66936;DHT22;53847;51.984;5.896;2022-07-23T12:12:59;25.50;46.60
66936;DHT22;53847;51.984;5.896;2022-07-23T12:15:29;25.30;46.60
66936;DHT22;53847;51.984;5.896;2022-07-23T12:17:56;25.30;46.50
66936;DHT22;53847;51.984;5.896;2022-07-23T12:20:25;25.40;46.30
66936;DHT22;53847;51.984;5.896;2022-07-23T12:22:56;25.30;46.30
66936;DHT22;53847;51.984;5.896;2022-07-23T12:25:26;25.20;46.10
66936;DHT22;53847;51.984;5.896;2022-07-23T12:28:22;25.50;46.50
66936;DHT22;53847;51.984;5.896;2022-07-23T12:30:54;25.60;46.60
66936;DHT22;53847;51.984;5.896;2022-07-23T12:35:53;25.80;46.60
66936;DHT22;53847;51.984;5.896;2022-07-23T12:38:22;25.60;46.10
66936;DHT22;53847;51.984;5.896;2022-07-23T12:40:58;25.60;46.00
66936;DHT22;53847;51.984;5.896;2022-07-23T12:43:28;25.60;45.80
66936;DHT22;53847;51.984;5.896;2022-07-23T12:46:13;26.10;46.40
66936;DHT22;53847;51.984;5.896;2022-07-23T12:53:51;25.70;45.70
66936;DHT22;53847;51.984;5.896;2022-07-23T12:58:56;25.80;45.50
66936;DHT22;53847;51.984;5.896;2022-07-23T13:06:24;26.20;45.70
66936;DHT22;53847;51.984;5.896;2022-07-23T13:08:50;25.60;45.30
66936;DHT22;53847;51.984;5.896;2022-07-23T13:11:16;26.00;45.40
66936;DHT22;53847;51.984;5.896;2022-07-23T13:13:42;26.00;45.10
66936;DHT22;53847;51.984;5.896;2022-07-23T13:16:09;26.20;45.20
66936;DHT22;53847;51.984;5.896;2022-07-23T13:19:15;26.00;44.80
66936;DHT22;53847;51.984;5.896;2022-07-23T13:21:42;26.10;44.80
66936;DHT22;53847;51.984;5.896;2022-07-23T13:24:09;26.10;44.60
66936;DHT22;53847;51.984;5.896;2022-07-23T13:26:36;25.80;44.40
66936;DHT22;53847;51.984;5.896;2022-07-23T13:29:03;26.10;44.70
66936;DHT22;53847;51.984;5.896;2022-07-23T13:31:29;26.20;44.80
66936;DHT22;53847;51.984;5.896;2022-07-23T13:33:57;26.20;43.90
66936;DHT22;53847;51.984;5.896;2022-07-23T13:36:24;26.80;44.30
66936;DHT22;53847;51.984;5.896;2022-07-23T13:39:06;26.10;44.00
66936;DHT22;53847;51.984;5.896;2022-07-23T13:41:38;26.50;44.60
66936;DHT22;53847;51.984;5.896;2022-07-23T13:44:14;26.30;43.80
66936;DHT22;53847;51.984;5.896;2022-07-23T13:46:40;26.60;44.40
66936;DHT22;53847;51.984;5.896;2022-07-23T13:49:13;26.70;44.40
66936;DHT22;53847;51.984;5.896;2022-07-23T13:51:44;26.90;44.30
66936;DHT22;53847;51.984;5.896;2022-07-23T13:54:10;27.00;44.10
66936;DHT22;53847;51.984;5.896;2022-07-23T13:56:36;27.10;44.10
66936;DHT22;53847;51.984;5.896;2022-07-23T13:59:02;26.80;43.80
66936;DHT22;53847;51.984;5.896;2022-07-23T14:01:29;27.10;43.70
66936;DHT22;53847;51.984;5.896;2022-07-23T14:03:55;27.00;43.60
66936;DHT22;53847;51.984;5.896;2022-07-23T14:06:23;27.00;43.70
66936;DHT22;53847;51.984;5.896;2022-07-23T14:08:49;27.00;43.80
66936;DHT22;53847;51.984;5.896;2022-07-23T14:11:15;26.70;43.40
66936;DHT22;53847;51.984;5.896;2022-07-23T14:13:42;27.00;43.40
66936;DHT22;53847;51.984;5.896;2022-07-23T14:16:08;26.70;43.30
66936;DHT22;53847;51.984;5.896;2022-07-23T14:18:34;27.30;43.80
66936;DHT22;53847;51.984;5.896;2022-07-23T14:21:05;27.00;43.50
66936;DHT22;53847;51.984;5.896;2022-07-23T14:23:36;27.00;43.40
66936;DHT22;53847;51.984;5.896;2022-07-23T14:26:07;26.80;43.00
66936;DHT22;53847;51.984;5.896;2022-07-23T14:28:34;26.80;43.10
66936;DHT22;53847;51.984;5.896;2022-07-23T14:31:02;26.80;43.00
66936;DHT22;53847;51.984;5.896;2022-07-23T14:33:29;26.70;43.20
66936;DHT22;53847;51.984;5.896;2022-07-23T14:35:56;26.70;43.20
66936;DHT22;53847;51.984;5.896;2022-07-23T14:38:29;26.70;43.20
66936;DHT22;53847;51.984;5.896;2022-07-23T14:40:56;26.70;43.40
66936;DHT22;53847;51.984;5.896;2022-07-23T14:43:23;26.60;43.50
66936;DHT22;53847;51.984;5.896;2022-07-23T14:45:49;26.50;43.20
66936;DHT22;53847;51.984;5.896;2022-07-23T14:48:16;26.50;43.30
66936;DHT22;53847;51.984;5.896;2022-07-23T14:50:42;26.90;43.70
66936;DHT22;53847;51.984;5.896;2022-07-23T14:53:09;26.60;43.50
66936;DHT22;53847;51.984;5.896;2022-07-23T14:55:35;26.90;43.80
66936;DHT22;53847;51.984;5.896;2022-07-23T14:58:02;26.70;43.60
66936;DHT22;53847;51.984;5.896;2022-07-23T15:00:32;26.70;43.30
66936;DHT22;53847;51.984;5.896;2022-07-23T15:02:58;26.70;43.40
66936;DHT22;53847;51.984;5.896;2022-07-23T15:05:25;26.70;43.40
66936;DHT22;53847;51.984;5.896;2022-07-23T15:07:52;26.90;43.60
66936;DHT22;53847;51.984;5.896;2022-07-23T15:10:18;26.30;43.40
66936;DHT22;53847;51.984;5.896;2022-07-23T15:12:44;26.60;44.00
66936;DHT22;53847;51.984;5.896;2022-07-23T15:15:11;26.80;44.00
66936;DHT22;53847;51.984;5.896;2022-07-23T15:17:37;26.70;43.90
66936;DHT22;53847;51.984;5.896;2022-07-23T15:20:05;26.70;43.90
66936;DHT22;53847;51.984;5.896;2022-07-23T15:22:32;26.80;44.20
66936;DHT22;53847;51.984;5.896;2022-07-23T15:24:59;26.70;44.10
66936;DHT22;53847;51.984;5.896;2022-07-23T15:27:26;26.90;44.20
66936;DHT22;53847;51.984;5.896;2022-07-23T15:29:53;26.70;43.90
66936;DHT22;53847;51.984;5.896;2022-07-23T15:32:19;26.80;44.00
66936;DHT22;53847;51.984;5.896;2022-07-23T15:34:45;26.90;44.00
66936;DHT22;53847;51.984;5.896;2022-07-23T15:37:11;26.80;43.90
66936;DHT22;53847;51.984;5.896;2022-07-23T15:39:37;26.50;43.70
66936;DHT22;53847;51.984;5.896;2022-07-23T15:42:07;26.90;43.90
66936;DHT22;53847;51.984;5.896;2022-07-23T15:44:33;27.20;44.20
66936;DHT22;53847;51.984;5.896;2022-07-23T15:46:59;27.30;44.40
66936;DHT22;53847;51.984;5.896;2022-07-23T15:49:26;26.80;44.10
66936;DHT22;53847;51.984;5.896;2022-07-23T15:51:52;27.10;44.10
66936;DHT22;53847;51.984;5.896;2022-07-23T15:54:18;27.10;44.00
66936;DHT22;53847;51.984;5.896;2022-07-23T15:56:44;27.20;43.80
66936;DHT22;53847;51.984;5.896;2022-07-23T15:59:11;27.30;43.90
66936;DHT22;53847;51.984;5.896;2022-07-23T16:01:37;27.40;43.80
66936;DHT22;53847;51.984;5.896;2022-07-23T16:04:03;27.20;43.20
66936;DHT22;53847;51.984;5.896;2022-07-23T16:06:32;27.40;43.00
66936;DHT22;53847;51.984;5.896;2022-07-23T16:08:58;27.40;43.30
66936;DHT22;53847;51.984;5.896;2022-07-23T16:11:24;27.50;43.20
66936;DHT22;53847;51.984;5.896;2022-07-23T16:13:50;27.40;42.80
66936;DHT22;53847;51.984;5.896;2022-07-23T16:16:17;27.40;42.70
66936;DHT22;53847;51.984;5.896;2022-07-23T16:18:43;27.40;42.90
66936;DHT22;53847;51.984;5.896;2022-07-23T16:21:09;27.20;42.90
66936;DHT22;53847;51.984;5.896;2022-07-23T16:23:35;27.20;43.00
66936;DHT22;53847;51.984;5.896;2022-07-23T16:26:09;27.10;42.80
66936;DHT22;53847;51.984;5.896;2022-07-23T16:28:36;27.30;43.10
66936;DHT22;53847;51.984;5.896;2022-07-23T16:31:02;27.40;43.20
66936;DHT22;53847;51.984;5.896;2022-07-23T16:33:28;26.80;42.60